Time;durP1;ratioP1;P1;durP2;ratioP2;P2;SDS_P1;SDS_P2;PMS_P1;PMS_P2;Temp;Humidity;BMP_temperature;BMP_pressure;BME280_temperature;BME280_humidity;BME280_pressure;Samples;Min_cycle;Max_cycle;Signal;HPM_P1;HPM_P2
2023/09/21 00:00:44;;;;;;;3.00;1.60;;;20.80;99.90;;;;;;2076045;28;20099;-72
2023/09/21 00:01:45;;;;;;;2.08;1.52;;;20.80;99.90;;;;;;2076297;28;20022;-73
2023/09/21 00:02:50;;;;;;;6.20;1.58;;;20.80;99.90;;;;;;2076943;28;20469;-73
2023/09/21 00:03:51;;;;;;;3.53;1.50;;;20.80;99.90;;;;;;2074376;28;20029;-73
2023/09/21 00:04:52;;;;;;;2.00;1.58;;;20.80;99.90;;;;;;2077061;28;20036;-73
2023/09/21 00:05:54;;;;;;;2.10;1.38;;;20.80;99.90;;;;;;2076187;28;20022;-73
2023/09/21 00:06:55;;;;;;;4.80;1.40;;;20.80;99.90;;;;;;2075907;28;20112;-72
2023/09/21 00:07:57;;;;;;;1.48;1.35;;;20.80;99.90;;;;;;2076201;28;20051;-73
2023/09/21 00:08:59;;;;;;;1.35;1.25;;;20.80;99.90;;;;;;2074929;28;20025;-73
2023/09/21 00:09:59;;;;;;;1.50;1.40;;;20.80;99.90;;;;;;2075619;28;20025;-73
2023/09/21 00:11:09;;;;;;;2.33;1.63;;;20.80;99.90;;;;;;2075944;28;20784;-73
2023/09/21 00:12:10;;;;;;;2.38;1.40;;;20.80;99.90;;;;;;2076751;28;20022;-73
2023/09/21 00:13:12;;;;;;;1.98;1.52;;;20.80;99.90;;;;;;2076938;28;20061;-73
2023/09/21 00:14:12;;;;;;;1.92;1.40;;;20.80;99.90;;;;;;2076936;28;20025;-73
2023/09/21 00:15:21;;;;;;;2.40;1.60;;;20.80;99.90;;;;;;2079514;28;20052;-73
2023/09/21 00:16:25;;;;;;;1.50;1.30;;;20.80;99.90;;;;;;2077245;28;20629;-73
2023/09/21 00:17:27;;;;;;;2.17;1.50;;;20.80;99.90;;;;;;2066811;28;20034;-73
2023/09/21 00:18:29;;;;;;;2.75;1.70;;;20.80;99.90;;;;;;2067989;28;20034;-73
2023/09/21 00:19:30;;;;;;;3.17;1.30;;;20.80;99.90;;;;;;2076399;28;20461;-73
2023/09/21 00:20:42;;;;;;;1.40;1.30;;;20.80;99.90;;;;;;2077372;28;20091;-73
2023/09/21 00:21:43;;;;;;;2.42;1.55;;;20.80;99.90;;;;;;2077718;28;20546;-73
2023/09/21 00:22:44;;;;;;;2.05;1.58;;;20.80;99.90;;;;;;2077459;28;20029;-73
2023/09/21 00:23:47;;;;;;;2.63;1.55;;;20.80;99.90;;;;;;2077973;28;20017;-73
2023/09/21 00:24:48;;;;;;;2.17;1.45;;;20.80;99.90;;;;;;2078603;28;20022;-73
2023/09/21 00:25:50;;;;;;;3.60;2.00;;;20.80;99.90;;;;;;2078691;28;20089;-73
2023/09/21 00:26:51;;;;;;;3.15;1.58;;;20.80;99.90;;;;;;2078269;28;20030;-73
2023/09/21 00:27:51;;;;;;;2.10;1.60;;;20.80;99.90;;;;;;2079316;28;20798;-73
2023/09/21 00:28:52;;;;;;;2.33;1.70;;;20.80;99.90;;;;;;2078657;28;20110;-73
2023/09/21 00:29:53;;;;;;;2.67;1.60;;;20.80;99.90;;;;;;2077908;28;20025;-73
2023/09/21 00:30:57;;;;;;;1.30;1.20;;;20.80;99.90;;;;;;2078883;28;20239;-73
2023/09/21 00:31:58;;;;;;;2.88;1.70;;;20.80;99.90;;;;;;2078290;28;20092;-73
2023/09/21 00:32:58;;;;;;;3.13;1.40;;;20.80;99.90;;;;;;2077449;28;20018;-73
2023/09/21 00:33:59;;;;;;;4.47;1.70;;;20.80;99.90;;;;;;2068522;28;20072;-73
2023/09/21 00:34:59;;;;;;;2.33;1.73;;;20.80;99.90;;;;;;2067912;28;20024;-73
2023/09/21 00:36:04;;;;;;;1.70;1.38;;;20.80;99.90;;;;;;2078740;28;20033;-73
2023/09/21 00:37:04;;;;;;;3.95;1.90;;;20.80;99.90;;;;;;2069423;28;20038;-73
2023/09/21 00:38:10;;;;;;;2.75;1.52;;;20.80;99.90;;;;;;2068866;28;20084;-73
2023/09/21 00:39:11;;;;;;;1.85;1.58;;;20.90;99.90;;;;;;2077100;28;20030;-73
2023/09/21 00:40:18;;;;;;;2.35;1.50;;;20.80;99.90;;;;;;2078614;28;20024;-73
2023/09/21 00:41:19;;;;;;;2.78;1.73;;;20.80;99.90;;;;;;2078009;28;20037;-73
2023/09/21 00:42:19;;;;;;;3.95;1.55;;;20.80;99.90;;;;;;2079661;28;20029;-74
2023/09/21 00:43:21;;;;;;;2.13;1.70;;;20.80;99.90;;;;;;2077963;28;20133;-73
2023/09/21 00:44:22;;;;;;;1.80;1.70;;;20.80;99.90;;;;;;2067264;28;20461;-73
2023/09/21 00:45:23;;;;;;;4.70;1.60;;;20.90;99.90;;;;;;2069766;28;20429;-73
2023/09/21 00:46:28;;;;;;;2.97;1.60;;;20.90;99.90;;;;;;2077160;28;20101;-73
2023/09/21 00:47:28;;;;;;;3.45;1.65;;;20.90;99.90;;;;;;2069342;28;20029;-73
2023/09/21 00:48:36;;;;;;;3.88;1.77;;;20.80;99.90;;;;;;2070544;28;20033;-73
2023/09/21 00:49:37;;;;;;;3.95;1.70;;;20.90;99.90;;;;;;2075921;28;20028;-73
2023/09/21 00:50:41;;;;;;;3.58;1.50;;;20.90;99.90;;;;;;2077391;28;20491;-73
2023/09/21 00:51:42;;;;;;;1.70;1.35;;;20.90;99.90;;;;;;2076154;28;20132;-73
2023/09/21 00:52:45;;;;;;;1.85;1.35;;;20.80;99.90;;;;;;2076013;28;20029;-73
2023/09/21 00:53:47;;;;;;;3.78;1.75;;;20.80;99.90;;;;;;2078396;28;20356;-73
2023/09/21 00:54:48;;;;;;;2.35;1.48;;;20.80;99.90;;;;;;2077883;28;20042;-73
2023/09/21 00:55:53;;;;;;;1.88;1.40;;;20.80;99.90;;;;;;2076552;28;20029;-73
2023/09/21 00:56:54;;;;;;;3.05;1.48;;;20.80;99.90;;;;;;2078119;28;20073;-73
2023/09/21 00:58:03;;;;;;;2.88;1.50;;;20.80;99.90;;;;;;2077329;28;20734;-73
2023/09/21 00:59:05;;;;;;;1.60;1.50;;;20.80;99.90;;;;;;2076513;28;20029;-73
2023/09/21 01:00:16;;;;;;;2.13;1.63;;;20.80;99.90;;;;;;2077731;28;20030;-73
2023/09/21 01:01:23;;;;;;;2.03;1.70;;;20.80;99.90;;;;;;2077147;28;20525;-72
2023/09/21 01:02:24;;;;;;;2.55;1.60;;;20.80;99.90;;;;;;2076653;28;21419;-73
2023/09/21 01:03:27;;;;;;;2.42;1.55;;;20.80;99.90;;;;;;2068033;28;20125;-73
2023/09/21 01:04:28;;;;;;;1.50;1.40;;;20.80;99.90;;;;;;2067828;28;20545;-73
2023/09/21 01:05:31;;;;;;;2.92;1.65;;;20.80;99.90;;;;;;2077263;28;20083;-73
2023/09/21 01:06:33;;;;;;;5.95;2.50;;;20.80;99.90;;;;;;2077220;28;20108;-73
2023/09/21 01:07:36;;;;;;;1.65;1.50;;;20.80;99.90;;;;;;2075356;28;20071;-73
2023/09/21 01:08:37;;;;;;;1.95;1.52;;;20.80;99.90;;;;;;2069559;28;20031;-73
2023/09/21 01:09:38;;;;;;;2.47;1.40;;;20.80;99.90;;;;;;2068568;28;20023;-73
2023/09/21 01:10:50;;;;;;;2.45;1.45;;;20.90;99.90;;;;;;2066690;28;20030;-73
2023/09/21 01:11:51;;;;;;;4.03;1.58;;;20.90;99.90;;;;;;2062557;28;20041;-73
2023/09/21 01:12:51;;;;;;;2.90;1.50;;;20.90;99.90;;;;;;2069396;28;20038;-73
2023/09/21 01:13:52;;;;;;;1.63;1.30;;;20.90;99.90;;;;;;2077840;28;20025;-74
2023/09/21 01:15:04;;;;;;;1.50;1.38;;;20.90;99.90;;;;;;2076504;28;20060;-73
2023/09/21 01:16:06;;;;;;;1.63;1.30;;;20.90;99.90;;;;;;2077793;28;20033;-74
2023/09/21 01:17:07;;;;;;;2.60;1.50;;;20.90;99.90;;;;;;2077886;28;20049;-73
2023/09/21 01:18:08;;;;;;;2.75;1.85;;;20.80;99.90;;;;;;2068924;28;20038;-73
2023/09/21 01:19:09;;;;;;;1.73;1.50;;;20.80;99.90;;;;;;2069988;28;20033;-73
2023/09/21 01:20:17;;;;;;;1.73;1.50;;;20.80;99.90;;;;;;2076686;28;20033;-74
2023/09/21 01:21:25;;;;;;;2.10;1.52;;;20.80;99.90;;;;;;2076478;28;20117;-73
2023/09/21 01:22:27;;;;;;;1.88;1.40;;;20.80;99.90;;;;;;2071375;28;20037;-73
2023/09/21 01:23:46;;;;;;;2.00;1.80;;;20.80;99.90;;;;;;2073716;28;20021;-73
2023/09/21 01:24:47;;;;;;;1.35;1.20;;;20.80;99.90;;;;;;2077326;28;20446;-73
2023/09/21 01:25:50;;;;;;;3.35;1.40;;;20.80;99.90;;;;;;2069195;28;20022;-74
2023/09/21 01:26:51;;;;;;;2.53;1.70;;;20.90;99.90;;;;;;2068309;28;20069;-73
2023/09/21 01:27:52;;;;;;;2.47;1.38;;;20.80;99.90;;;;;;2068490;28;20574;-73
2023/09/21 01:28:56;;;;;;;1.80;1.45;;;20.90;99.90;;;;;;2076978;28;20046;-73
2023/09/21 01:29:57;;;;;;;2.22;1.35;;;20.80;99.90;;;;;;2078367;28;20476;-73
2023/09/21 01:30:57;;;;;;;1.95;1.63;;;20.80;99.90;;;;;;2076430;28;20393;-73
2023/09/21 01:31:58;;;;;;;2.10;1.55;;;20.90;99.90;;;;;;2076447;28;20029;-73
2023/09/21 01:33:03;;;;;;;1.95;1.67;;;20.90;99.90;;;;;;2077694;28;20030;-73
2023/09/21 01:34:04;;;;;;;1.58;1.25;;;20.90;99.90;;;;;;2077737;28;20098;-73
2023/09/21 01:35:06;;;;;;;1.92;1.50;;;20.80;99.90;;;;;;2078548;28;20029;-73
2023/09/21 01:36:08;;;;;;;3.75;1.65;;;20.90;99.90;;;;;;2077529;28;20032;-74
2023/09/21 01:37:09;;;;;;;1.88;1.70;;;20.90;99.90;;;;;;2078558;28;20022;-73
2023/09/21 01:38:11;;;;;;;1.80;1.48;;;20.90;99.90;;;;;;2075925;28;21027;-73
2023/09/21 01:39:12;;;;;;;1.75;1.30;;;20.90;99.90;;;;;;2076638;28;20061;-73
2023/09/21 01:40:16;;;;;;;1.70;1.60;;;20.90;99.90;;;;;;2076969;28;20030;-73
2023/09/21 01:41:18;;;;;;;1.85;1.50;;;20.90;99.90;;;;;;2076425;28;20491;-73
2023/09/21 01:42:19;;;;;;;1.45;1.35;;;20.90;99.90;;;;;;2077671;28;20032;-73
2023/09/21 01:43:20;;;;;;;2.83;1.42;;;20.90;99.90;;;;;;2068649;28;20037;-73
2023/09/21 01:44:21;;;;;;;1.50;1.27;;;20.90;99.90;;;;;;2069025;28;20032;-72
2023/09/21 01:45:22;;;;;;;3.35;1.55;;;20.90;99.90;;;;;;2079750;28;20014;-73
2023/09/21 01:46:24;;;;;;;2.55;1.75;;;20.90;99.90;;;;;;2075879;28;20033;-73
2023/09/21 01:47:25;;;;;;;1.50;1.40;;;20.80;99.90;;;;;;2076476;28;20086;-74
2023/09/21 01:48:27;;;;;;;1.58;1.13;;;20.90;99.90;;;;;;2076286;28;20025;-73
2023/09/21 01:49:27;;;;;;;1.45;1.33;;;20.80;99.90;;;;;;2067494;28;20053;-73
2023/09/21 01:50:29;;;;;;;3.90;1.70;;;20.80;99.90;;;;;;2070324;28;20026;-73
2023/09/21 01:51:29;;;;;;;2.63;1.67;;;20.80;99.90;;;;;;2076679;28;20033;-73
2023/09/21 01:52:30;;;;;;;1.52;1.42;;;20.80;99.90;;;;;;2076146;28;20025;-73
2023/09/21 01:53:32;;;;;;;1.88;1.60;;;20.80;99.90;;;;;;2076696;28;20031;-73
2023/09/21 01:54:32;;;;;;;1.92;1.33;;;20.80;99.90;;;;;;2076528;28;20080;-73
2023/09/21 01:55:33;;;;;;;1.98;1.40;;;20.80;99.90;;;;;;2078434;28;20041;-73
2023/09/21 01:56:36;;;;;;;2.30;1.40;;;20.80;99.90;;;;;;2076889;28;20030;-73
2023/09/21 01:57:38;;;;;;;1.70;1.38;;;20.80;99.90;;;;;;2077517;28;20551;-73
2023/09/21 01:58:38;;;;;;;2.65;1.30;;;20.80;99.90;;;;;;2076298;28;20030;-73
2023/09/21 01:59:39;;;;;;;2.70;1.30;;;20.80;99.90;;;;;;2070578;28;20030;-73
2023/09/21 02:00:41;;;;;;;1.40;1.30;;;20.80;99.90;;;;;;2071963;28;20030;-74
2023/09/21 02:01:42;;;;;;;3.63;1.55;;;20.80;99.90;;;;;;2076038;28;20488;-73
2023/09/21 02:02:42;;;;;;;3.10;1.40;;;20.80;99.90;;;;;;2074107;28;20459;-73
2023/09/21 02:03:44;;;;;;;7.07;1.92;;;20.80;99.90;;;;;;2077555;28;20033;-73
2023/09/21 02:04:44;;;;;;;3.78;1.85;;;20.80;99.90;;;;;;2077305;28;20071;-73
2023/09/21 02:05:46;;;;;;;1.98;1.50;;;20.80;99.90;;;;;;2076549;28;20018;-73
2023/09/21 02:06:46;;;;;;;2.85;1.63;;;20.80;99.90;;;;;;2076984;28;20030;-73
2023/09/21 02:07:48;;;;;;;4.28;1.52;;;20.80;99.90;;;;;;2068633;28;20113;-73
2023/09/21 02:08:49;;;;;;;2.88;1.80;;;20.80;99.90;;;;;;2067976;28;20041;-73
2023/09/21 02:09:49;;;;;;;3.63;1.50;;;20.80;99.90;;;;;;2068515;28;20112;-73
2023/09/21 02:10:50;;;;;;;2.15;1.58;;;20.80;99.90;;;;;;2078121;28;20461;-73
2023/09/21 02:11:50;;;;;;;2.90;1.67;;;20.80;99.90;;;;;;2076375;28;20084;-73
2023/09/21 02:12:57;;;;;;;1.20;1.10;;;20.80;99.90;;;;;;2076130;28;20025;-73
2023/09/21 02:13:58;;;;;;;2.85;1.55;;;20.70;99.90;;;;;;2076502;28;20021;-74
2023/09/21 02:14:59;;;;;;;1.60;1.40;;;20.70;99.90;;;;;;2077595;28;20026;-73
2023/09/21 02:15:59;;;;;;;2.83;1.42;;;20.70;99.90;;;;;;2078244;28;20029;-73
2023/09/21 02:17:00;;;;;;;1.50;1.40;;;20.70;99.90;;;;;;2076908;28;20041;-73
2023/09/21 02:18:02;;;;;;;2.28;1.52;;;20.70;99.90;;;;;;2077759;28;20067;-73
2023/09/21 02:19:03;;;;;;;1.65;1.40;;;20.70;99.90;;;;;;2076761;28;20036;-73
2023/09/21 02:20:13;;;;;;;3.28;1.50;;;20.60;99.90;;;;;;2076066;28;20040;-73
2023/09/21 02:21:17;;;;;;;2.15;1.58;;;20.70;99.90;;;;;;2077717;28;20069;-73
2023/09/21 02:22:19;;;;;;;2.45;1.50;;;20.70;99.90;;;;;;2074532;28;20148;-73
2023/09/21 02:23:20;;;;;;;2.88;1.48;;;20.70;99.90;;;;;;2076965;28;20053;-73
2023/09/21 02:24:21;;;;;;;3.30;1.48;;;20.70;99.90;;;;;;2076434;28;20025;-73
2023/09/21 02:25:22;;;;;;;1.90;1.55;;;20.70;99.90;;;;;;2077088;28;20412;-73
2023/09/21 02:26:23;;;;;;;1.52;1.23;;;20.70;99.90;;;;;;2077544;28;20018;-73
2023/09/21 02:27:23;;;;;;;2.85;1.92;;;20.70;99.90;;;;;;2075022;28;20022;-73
2023/09/21 02:28:24;;;;;;;1.55;1.27;;;20.70;99.90;;;;;;2075725;28;20056;-73
2023/09/21 02:29:24;;;;;;;3.72;1.30;;;20.70;99.90;;;;;;2068988;28;20108;-73
2023/09/21 02:30:25;;;;;;;2.30;1.27;;;20.70;99.90;;;;;;2068005;28;20022;-73
2023/09/21 02:31:26;;;;;;;1.63;1.40;;;20.70;99.90;;;;;;2076816;28;20038;-73
2023/09/21 02:32:27;;;;;;;2.28;1.63;;;20.70;99.90;;;;;;2067622;28;20029;-74
2023/09/21 02:33:29;;;;;;;1.30;1.20;;;20.70;99.90;;;;;;2066724;28;20044;-73
2023/09/21 02:34:30;;;;;;;1.60;1.40;;;20.70;99.90;;;;;;2067931;28;20022;-73
2023/09/21 02:35:33;;;;;;;2.83;1.35;;;20.70;99.90;;;;;;2074470;28;20061;-73
2023/09/21 02:36:34;;;;;;;3.10;1.65;;;20.60;99.90;;;;;;2067809;28;20062;-73
2023/09/21 02:37:35;;;;;;;3.25;1.63;;;20.60;99.90;;;;;;2064423;28;20031;-73
2023/09/21 02:38:36;;;;;;;1.35;1.23;;;20.60;99.90;;;;;;2070635;28;20037;-73
2023/09/21 02:39:36;;;;;;;2.10;1.58;;;20.60;99.90;;;;;;2077978;28;20041;-73
2023/09/21 02:40:39;;;;;;;2.42;1.30;;;20.60;99.90;;;;;;2077238;28;20060;-73
2023/09/21 02:41:39;;;;;;;3.13;1.60;;;20.60;99.90;;;;;;2076499;28;20025;-73
2023/09/21 02:42:42;;;;;;;1.27;1.17;;;20.60;99.90;;;;;;2076661;28;20052;-73
2023/09/21 02:43:42;;;;;;;1.65;1.50;;;20.60;99.90;;;;;;2075763;28;20112;-73
2023/09/21 02:44:45;;;;;;;3.15;1.83;;;20.60;99.90;;;;;;2076309;28;20702;-73
2023/09/21 02:45:46;;;;;;;5.13;1.58;;;20.60;99.90;;;;;;2076050;28;20014;-73
2023/09/21 02:46:46;;;;;;;2.20;1.23;;;20.60;99.90;;;;;;2076689;28;20034;-73
2023/09/21 02:47:47;;;;;;;2.88;1.10;;;20.60;99.90;;;;;;2076552;28;20057;-73
2023/09/21 02:48:48;;;;;;;3.55;1.80;;;20.60;99.90;;;;;;2074745;28;20022;-73
2023/09/21 02:49:50;;;;;;;1.45;1.35;;;20.60;99.90;;;;;;2075678;28;20020;-73
2023/09/21 02:50:51;;;;;;;2.20;1.70;;;20.60;99.90;;;;;;2077523;28;20116;-73
2023/09/21 02:51:52;;;;;;;1.67;1.50;;;20.60;99.90;;;;;;2078178;28;20026;-73
2023/09/21 02:52:54;;;;;;;4.45;1.70;;;20.60;99.90;;;;;;2076376;28;20334;-73
2023/09/21 02:53:55;;;;;;;1.95;1.60;;;20.60;99.90;;;;;;2077462;28;20123;-74
2023/09/21 02:54:57;;;;;;;3.28;1.30;;;20.60;99.90;;;;;;2070041;28;20064;-73
2023/09/21 02:55:59;;;;;;;2.03;1.48;;;20.60;99.90;;;;;;2067701;28;20026;-73
2023/09/21 02:57:02;;;;;;;1.55;1.23;;;20.60;99.90;;;;;;2075392;28;20143;-73
2023/09/21 02:58:10;;;;;;;1.80;1.50;;;20.60;99.90;;;;;;2077411;28;20025;-73
2023/09/21 02:59:13;;;;;;;1.75;1.40;;;20.60;99.90;;;;;;2076582;28;20075;-73
2023/09/21 03:00:21;;;;;;;2.90;1.50;;;20.60;99.90;;;;;;2068211;28;20025;-73
2023/09/21 03:01:22;;;;;;;1.95;1.42;;;20.60;99.90;;;;;;2067606;28;20030;-73
2023/09/21 03:02:23;;;;;;;1.55;1.30;;;20.50;99.90;;;;;;2077111;28;20033;-73
2023/09/21 03:03:24;;;;;;;2.08;1.35;;;20.50;99.90;;;;;;2069664;28;20149;-73
2023/09/21 03:04:25;;;;;;;3.05;1.60;;;20.50;99.90;;;;;;2067999;28;20630;-73
2023/09/21 03:05:27;;;;;;;3.20;1.75;;;20.50;99.90;;;;;;2075199;28;20014;-73
2023/09/21 03:06:32;;;;;;;2.28;1.33;;;20.50;99.90;;;;;;2075724;28;20554;-74
2023/09/21 03:07:33;;;;;;;2.33;1.40;;;20.50;99.90;;;;;;2075638;28;20034;-73
2023/09/21 03:08:34;;;;;;;2.13;1.80;;;20.50;99.90;;;;;;2076460;28;20096;-73
2023/09/21 03:09:37;;;;;;;2.95;1.42;;;20.50;99.90;;;;;;2078658;28;20040;-73
2023/09/21 03:10:37;;;;;;;2.20;1.33;;;20.50;99.90;;;;;;2067738;28;20831;-73
2023/09/21 03:11:39;;;;;;;3.08;1.60;;;20.50;99.90;;;;;;2067786;28;20393;-73
2023/09/21 03:12:40;;;;;;;2.28;1.40;;;20.50;99.90;;;;;;2077246;28;20412;-73
2023/09/21 03:13:41;;;;;;;4.07;1.60;;;20.50;99.90;;;;;;2075549;28;20096;-73
2023/09/21 03:14:43;;;;;;;2.03;1.65;;;20.50;99.90;;;;;;2076837;28;20107;-73
2023/09/21 03:15:48;;;;;;;6.53;1.73;;;20.50;99.90;;;;;;2076706;28;20022;-73
2023/09/21 03:16:49;;;;;;;1.58;1.30;;;20.50;99.90;;;;;;2076132;28;20124;-73
2023/09/21 03:17:53;;;;;;;1.73;1.50;;;20.40;99.90;;;;;;2077064;28;20140;-73
2023/09/21 03:18:53;;;;;;;3.00;1.42;;;20.40;99.90;;;;;;2077262;28;20029;-73
2023/09/21 03:19:55;;;;;;;2.08;1.50;;;20.40;99.90;;;;;;2075683;28;20084;-73
2023/09/21 03:20:56;;;;;;;2.58;1.20;;;20.40;99.90;;;;;;2076172;28;20029;-73
2023/09/21 03:21:57;;;;;;;2.35;1.77;;;20.40;99.90;;;;;;2077234;28;20022;-73
2023/09/21 03:22:59;;;;;;;3.97;1.40;;;20.40;99.90;;;;;;2075469;28;20060;-73
2023/09/21 03:24:00;;;;;;;2.75;1.60;;;20.40;99.90;;;;;;2076817;28;20036;-73
2023/09/21 03:25:01;;;;;;;1.40;1.30;;;20.40;99.90;;;;;;2075696;28;20028;-73
2023/09/21 03:26:02;;;;;;;1.63;1.23;;;20.40;99.90;;;;;;2075949;28;20029;-73
2023/09/21 03:27:04;;;;;;;2.65;1.58;;;20.40;99.90;;;;;;2077550;28;20045;-73
2023/09/21 03:28:12;;;;;;;1.77;1.30;;;20.40;99.90;;;;;;2076358;28;20014;-73
2023/09/21 03:29:13;;;;;;;2.00;1.23;;;20.40;99.90;;;;;;2076789;28;20025;-73
2023/09/21 03:30:13;;;;;;;1.75;1.30;;;20.30;99.90;;;;;;2074893;28;20033;-73
2023/09/21 03:31:15;;;;;;;1.98;1.58;;;20.30;99.90;;;;;;2076116;28;20644;-73
2023/09/21 03:32:17;;;;;;;2.20;1.52;;;20.30;99.90;;;;;;2074667;28;20027;-73
2023/09/21 03:33:20;;;;;;;1.83;1.30;;;20.30;99.90;;;;;;2075432;28;20116;-73
2023/09/21 03:34:20;;;;;;;3.50;1.60;;;20.30;99.90;;;;;;2074568;28;20037;-73
2023/09/21 03:35:24;;;;;;;1.70;1.50;;;20.30;99.90;;;;;;2076298;28;20040;-73
2023/09/21 03:36:25;;;;;;;2.50;1.38;;;20.30;99.90;;;;;;2067350;28;20056;-73
2023/09/21 03:37:26;;;;;;;4.35;2.00;;;20.30;99.90;;;;;;2067423;28;20549;-73
2023/09/21 03:38:27;;;;;;;2.05;1.70;;;20.30;99.90;;;;;;2076118;28;20029;-73
2023/09/21 03:39:28;;;;;;;2.90;1.55;;;20.30;99.90;;;;;;2077793;28;20026;-73
2023/09/21 03:40:30;;;;;;;2.47;1.75;;;20.30;99.90;;;;;;2077146;28;20029;-73
2023/09/21 03:41:30;;;;;;;3.40;1.40;;;20.30;99.90;;;;;;2077128;28;20037;-73
2023/09/21 03:42:32;;;;;;;3.17;1.50;;;20.30;99.90;;;;;;2076515;28;20079;-73
2023/09/21 03:43:33;;;;;;;2.50;1.55;;;20.30;99.90;;;;;;2067770;28;20037;-72
2023/09/21 03:44:33;;;;;;;1.80;1.60;;;20.30;99.90;;;;;;2068147;28;20022;-73
2023/09/21 03:45:34;;;;;;;3.72;1.88;;;20.30;99.90;;;;;;2075993;28;20022;-73
2023/09/21 03:46:35;;;;;;;3.03;1.40;;;20.30;99.90;;;;;;2068257;28;20109;-73
2023/09/21 03:47:36;;;;;;;2.35;1.73;;;20.30;99.90;;;;;;2069279;28;20030;-73
2023/09/21 03:48:37;;;;;;;1.60;1.40;;;20.30;99.90;;;;;;2077050;28;20480;-73
2023/09/21 03:49:38;;;;;;;2.83;1.50;;;20.30;99.90;;;;;;2077942;28;20025;-73
2023/09/21 03:50:40;;;;;;;1.40;1.30;;;20.20;99.90;;;;;;2077373;28;20057;-73
2023/09/21 03:51:40;;;;;;;1.88;1.70;;;20.20;99.90;;;;;;2075888;28;20064;-73
2023/09/21 03:52:42;;;;;;;3.00;1.85;;;20.20;99.90;;;;;;2074734;28;20033;-73
2023/09/21 03:53:42;;;;;;;1.52;1.30;;;20.20;99.90;;;;;;2075640;28;20029;-73
2023/09/21 03:54:45;;;;;;;2.17;2.00;;;20.20;99.90;;;;;;2076493;28;20049;-73
2023/09/21 03:55:47;;;;;;;3.35;1.52;;;20.20;99.90;;;;;;2076387;28;20026;-73
2023/09/21 03:56:47;;;;;;;2.95;1.63;;;20.20;99.90;;;;;;2076470;28;20106;-73
2023/09/21 03:57:48;;;;;;;2.28;2.00;;;20.20;99.90;;;;;;2076663;28;20032;-73
2023/09/21 03:58:48;;;;;;;2.75;1.60;;;20.20;99.90;;;;;;2076169;28;20112;-74
2023/09/21 03:59:49;;;;;;;1.65;1.55;;;20.20;99.90;;;;;;2075702;28;20407;-73
2023/09/21 04:00:49;;;;;;;2.65;1.67;;;20.10;99.90;;;;;;2074149;28;20079;-73
2023/09/21 04:01:50;;;;;;;3.22;1.50;;;20.10;99.90;;;;;;2074191;28;20029;-73
2023/09/21 04:02:53;;;;;;;2.90;1.67;;;20.20;99.90;;;;;;2075519;28;20049;-73
2023/09/21 04:03:54;;;;;;;3.63;1.65;;;20.20;99.90;;;;;;2075721;28;20388;-73
2023/09/21 04:05:03;;;;;;;1.80;1.50;;;20.10;99.90;;;;;;2075210;28;20022;-73
2023/09/21 04:06:06;;;;;;;3.15;1.50;;;20.10;99.90;;;;;;2076102;28;20014;-73
2023/09/21 04:07:07;;;;;;;1.73;1.40;;;20.10;99.90;;;;;;2074125;28;20124;-73
2023/09/21 04:08:08;;;;;;;4.93;1.70;;;20.10;99.90;;;;;;2077360;28;20036;-73
2023/09/21 04:09:09;;;;;;;4.57;1.70;;;20.10;99.90;;;;;;2074496;28;20035;-73
2023/09/21 04:10:09;;;;;;;2.00;1.80;;;20.10;99.90;;;;;;2075393;28;20026;-73
2023/09/21 04:11:10;;;;;;;2.00;1.40;;;20.20;99.90;;;;;;2075149;28;20036;-73
2023/09/21 04:12:10;;;;;;;1.45;1.35;;;20.10;99.90;;;;;;2075819;28;20144;-73
2023/09/21 04:13:11;;;;;;;2.92;1.77;;;20.10;99.90;;;;;;2074961;28;20381;-73
2023/09/21 04:14:11;;;;;;;2.45;1.58;;;20.10;99.90;;;;;;2075717;28;20109;-73
2023/09/21 04:15:12;;;;;;;3.10;1.70;;;20.10;99.90;;;;;;2075922;28;20044;-73
2023/09/21 04:16:13;;;;;;;2.50;1.40;;;20.10;99.90;;;;;;2075836;28;20032;-73
2023/09/21 04:17:13;;;;;;;2.00;1.60;;;20.10;99.90;;;;;;2074390;28;20039;-73
2023/09/21 04:18:14;;;;;;;2.20;1.63;;;20.10;99.90;;;;;;2076201;28;20041;-73
2023/09/21 04:19:15;;;;;;;1.50;1.23;;;20.10;99.90;;;;;;2074871;28;21025;-73
2023/09/21 04:20:16;;;;;;;1.42;1.33;;;20.10;99.90;;;;;;2075262;28;20147;-73
2023/09/21 04:21:17;;;;;;;3.92;2.20;;;20.00;99.90;;;;;;2075295;28;20022;-73
2023/09/21 04:22:17;;;;;;;3.95;2.00;;;20.10;99.90;;;;;;2075592;28;20104;-73
2023/09/21 04:23:18;;;;;;;5.75;1.90;;;20.00;99.90;;;;;;2077722;28;20080;-73
2023/09/21 04:24:18;;;;;;;2.42;1.55;;;20.10;99.90;;;;;;2077347;28;20110;-73
2023/09/21 04:25:19;;;;;;;2.17;1.63;;;20.00;99.90;;;;;;2076370;28;20396;-73
2023/09/21 04:26:20;;;;;;;3.00;1.85;;;20.00;99.90;;;;;;2076373;28;20037;-73
2023/09/21 04:27:21;;;;;;;4.60;1.67;;;20.00;99.90;;;;;;2076438;28;20507;-73
2023/09/21 04:28:22;;;;;;;2.67;1.73;;;20.00;99.90;;;;;;2076026;28;20026;-73
2023/09/21 04:29:24;;;;;;;1.75;1.65;;;20.00;99.90;;;;;;2075752;28;20029;-73
2023/09/21 04:30:25;;;;;;;2.83;1.73;;;20.00;99.90;;;;;;2075380;28;20117;-73
2023/09/21 04:31:25;;;;;;;3.45;1.75;;;20.00;99.90;;;;;;2075558;28;20021;-73
2023/09/21 04:32:26;;;;;;;3.25;1.80;;;20.10;99.90;;;;;;2076967;28;20025;-73
2023/09/21 04:33:27;;;;;;;1.67;1.55;;;20.00;99.90;;;;;;2076686;28;20424;-73
2023/09/21 04:34:27;;;;;;;1.95;1.50;;;20.00;99.90;;;;;;2076052;28;20044;-73
2023/09/21 04:35:28;;;;;;;5.10;1.60;;;20.00;99.90;;;;;;2075640;28;20044;-73
2023/09/21 04:36:28;;;;;;;2.05;1.60;;;20.00;99.90;;;;;;2076866;28;20872;-73
2023/09/21 04:37:29;;;;;;;1.58;1.38;;;20.00;99.90;;;;;;2076810;28;20099;-73
2023/09/21 04:38:29;;;;;;;3.50;1.80;;;20.00;99.90;;;;;;2075085;28;20102;-73
2023/09/21 04:39:32;;;;;;;2.22;1.63;;;20.00;99.90;;;;;;2076525;28;20446;-73
2023/09/21 04:40:32;;;;;;;3.10;1.75;;;20.00;99.90;;;;;;2076154;28;20121;-73
2023/09/21 04:41:33;;;;;;;2.28;1.48;;;20.00;99.90;;;;;;2074994;28;20032;-73
2023/09/21 04:42:34;;;;;;;2.58;1.70;;;20.00;99.90;;;;;;2075710;28;20024;-73
2023/09/21 04:43:39;;;;;;;2.78;1.38;;;20.00;99.90;;;;;;2074694;28;20029;-73
2023/09/21 04:44:40;;;;;;;2.63;1.73;;;20.00;99.90;;;;;;2074313;28;20022;-73
2023/09/21 04:45:40;;;;;;;1.83;1.65;;;20.00;99.90;;;;;;2076565;28;20018;-73
2023/09/21 04:46:42;;;;;;;3.45;1.50;;;20.00;99.90;;;;;;2077201;28;20025;-73
2023/09/21 04:47:45;;;;;;;3.75;1.65;;;20.00;99.90;;;;;;2073960;28;20049;-73
2023/09/21 04:48:46;;;;;;;4.47;1.75;;;20.00;99.90;;;;;;2074213;28;20070;-73
2023/09/21 04:49:48;;;;;;;3.65;1.65;;;20.00;99.90;;;;;;2077130;28;20511;-73
2023/09/21 04:50:48;;;;;;;3.50;1.88;;;20.10;99.90;;;;;;2067506;28;20126;-73
2023/09/21 04:51:49;;;;;;;3.15;1.50;;;20.00;99.90;;;;;;2068024;28;20081;-73
2023/09/21 04:52:49;;;;;;;2.50;1.75;;;20.00;99.90;;;;;;2075069;28;20028;-73
2023/09/21 04:53:50;;;;;;;2.30;1.70;;;20.00;99.90;;;;;;2065261;28;20030;-73
2023/09/21 04:54:51;;;;;;;3.20;2.00;;;20.00;99.90;;;;;;2066953;28;20631;-73
2023/09/21 04:55:52;;;;;;;3.92;1.80;;;20.00;99.90;;;;;;2075342;28;20034;-73
2023/09/21 04:56:53;;;;;;;2.95;1.50;;;20.00;99.90;;;;;;2077227;28;20540;-73
2023/09/21 04:57:55;;;;;;;4.88;1.60;;;20.00;99.90;;;;;;2074373;28;20018;-73
2023/09/21 04:58:55;;;;;;;4.18;1.45;;;20.10;99.90;;;;;;2075963;28;20499;-73
2023/09/21 05:00:00;;;;;;;2.50;1.55;;;20.10;99.90;;;;;;2075847;28;20832;-73
2023/09/21 05:01:09;;;;;;;2.75;1.70;;;20.00;99.90;;;;;;2067638;28;20718;-73
2023/09/21 05:02:11;;;;;;;6.43;2.30;;;20.00;99.90;;;;;;2067907;28;20224;-73
2023/09/21 05:03:11;;;;;;;3.53;1.77;;;20.00;99.90;;;;;;2070072;28;20025;-73
2023/09/21 05:04:13;;;;;;;4.72;1.95;;;20.00;99.90;;;;;;2067808;28;20491;-73
2023/09/21 05:05:14;;;;;;;1.88;1.70;;;20.00;99.90;;;;;;2077480;28;20516;-74
2023/09/21 05:06:14;;;;;;;5.15;1.70;;;20.00;99.90;;;;;;2078613;28;20025;-73
2023/09/21 05:07:15;;;;;;;3.60;1.77;;;20.10;99.90;;;;;;2078253;28;20041;-73
2023/09/21 05:08:15;;;;;;;1.85;1.48;;;20.00;99.90;;;;;;2076765;28;20112;-73
2023/09/21 05:09:16;;;;;;;3.10;1.88;;;20.10;99.90;;;;;;2077251;28;20026;-73
2023/09/21 05:10:17;;;;;;;2.63;1.48;;;20.00;99.90;;;;;;2076694;28;20485;-73
2023/09/21 05:11:17;;;;;;;2.05;1.60;;;20.00;99.90;;;;;;2078088;28;20065;-73
2023/09/21 05:12:18;;;;;;;2.88;1.58;;;20.10;99.90;;;;;;2077240;28;20136;-73
2023/09/21 05:13:20;;;;;;;4.07;1.75;;;20.00;99.90;;;;;;2078306;28;20783;-73
2023/09/21 05:14:21;;;;;;;3.83;1.60;;;20.00;99.90;;;;;;2076930;28;20042;-73
2023/09/21 05:15:22;;;;;;;3.42;1.65;;;20.10;99.90;;;;;;2074931;28;20057;-73
2023/09/21 05:16:23;;;;;;;3.78;1.88;;;20.00;99.90;;;;;;2075688;28;20029;-73
2023/09/21 05:17:23;;;;;;;1.83;1.60;;;20.10;99.90;;;;;;2078117;28;20051;-73
2023/09/21 05:18:24;;;;;;;2.92;1.30;;;20.10;99.90;;;;;;2077950;28;20033;-73
2023/09/21 05:19:26;;;;;;;3.28;1.50;;;20.10;99.90;;;;;;2077153;28;20405;-73
2023/09/21 05:20:26;;;;;;;4.05;1.63;;;20.10;99.90;;;;;;2076451;28;20071;-72
2023/09/21 05:21:27;;;;;;;1.90;1.67;;;20.10;99.90;;;;;;2067399;28;20038;-73
2023/09/21 05:22:28;;;;;;;3.45;1.58;;;20.10;99.90;;;;;;2067777;28;20500;-73